Time;durP1;ratioP1;P1;durP2;ratioP2;P2;SDS_P1;SDS_P2;PMS_P1;PMS_P2;Temp;Humidity;BMP_temperature;BMP_pressure;BME280_temperature;BME280_humidity;BME280_pressure;Samples;Min_cycle;Max_cycle;Signal;HPM_P1;HPM_P2
2020/12/30 00:00:31;;;;;;;7.13;5.27;;;0.80;99.90;-0.50;95174.00;;;;6150856;23;20400;-66
2020/12/30 00:02:59;;;;;;;6.10;4.90;;;0.80;99.90;-0.50;95173.00;;;;6150406;23;20448;-68
2020/12/30 00:05:28;;;;;;;5.10;4.53;;;0.80;99.90;-0.50;95180.00;;;;6151199;23;20398;-67
2020/12/30 00:07:56;;;;;;;6.30;5.47;;;0.80;99.90;-0.50;95173.00;;;;6149498;23;20402;-67
2020/12/30 00:10:24;;;;;;;8.77;6.63;;;0.80;99.90;-0.60;95173.00;;;;6150049;23;20421;-68
2020/12/30 00:12:51;;;;;;;7.13;5.67;;;0.80;99.90;-0.60;95161.00;;;;6149911;23;20441;-67
2020/12/30 00:15:20;;;;;;;7.40;6.50;;;0.70;99.90;-0.60;95167.00;;;;6150212;23;20428;-68
2020/12/30 00:17:48;;;;;;;5.70;5.17;;;0.70;99.90;-0.60;95175.00;;;;6149563;23;20902;-68
2020/12/30 00:20:17;;;;;;;6.77;4.83;;;0.80;99.90;-0.60;95188.00;;;;6150798;23;20405;-70
2020/12/30 00:22:46;;;;;;;5.93;5.03;;;0.70;99.90;-0.60;95186.00;;;;6149955;23;20463;-68
2020/12/30 00:25:15;;;;;;;6.23;5.13;;;0.70;99.90;-0.50;95189.00;;;;6150338;23;20472;-68
2020/12/30 00:27:45;;;;;;;6.10;5.40;;;0.70;99.90;-0.60;95190.00;;;;6149381;23;20413;-67
2020/12/30 00:30:15;;;;;;;6.23;5.63;;;0.70;99.90;-0.60;95197.00;;;;6150676;23;20390;-66
2020/12/30 00:32:44;;;;;;;5.77;5.00;;;0.70;99.90;-0.60;95187.00;;;;6149402;23;20970;-67
2020/12/30 00:35:13;;;;;;;8.47;5.90;;;0.70;99.90;-0.60;95184.00;;;;6149908;23;20441;-67
2020/12/30 00:37:40;;;;;;;6.70;4.80;;;0.70;99.90;-0.60;95188.00;;;;6149286;23;20521;-67
2020/12/30 00:40:09;;;;;;;7.47;6.67;;;0.70;99.90;-0.60;95179.00;;;;6150245;23;20390;-67
2020/12/30 00:42:38;;;;;;;6.23;5.23;;;0.70;99.90;-0.70;95180.00;;;;6149349;23;20480;-69
2020/12/30 00:45:08;;;;;;;6.57;5.00;;;0.70;99.90;-0.70;95175.00;;;;6150494;23;20402;-67
2020/12/30 00:47:35;;;;;;;5.60;5.10;;;0.60;99.90;-0.70;95174.00;;;;6149861;23;20750;-67
2020/12/30 00:50:04;;;;;;;6.50;5.87;;;0.60;99.90;-0.80;95183.00;;;;6150536;23;20914;-66
2020/12/30 00:52:32;;;;;;;7.63;6.83;;;0.60;99.90;-0.80;95171.00;;;;6150737;23;20438;-67
2020/12/30 00:55:01;;;;;;;8.73;6.43;;;0.60;99.90;-0.80;95168.00;;;;6150628;23;20416;-67
2020/12/30 00:57:29;;;;;;;6.70;6.10;;;0.50;99.90;-0.80;95176.00;;;;6149897;23;20405;-67
2020/12/30 00:59:57;;;;;;;5.90;5.00;;;0.50;99.90;-0.80;95166.00;;;;6150310;23;20413;-68
2020/12/30 01:02:24;;;;;;;7.57;5.53;;;0.50;99.90;-0.80;95170.00;;;;6149830;23;20457;-68
2020/12/30 01:04:52;;;;;;;6.30;4.97;;;0.50;99.90;-0.80;95164.00;;;;6151023;23;20409;-67
2020/12/30 01:07:19;;;;;;;6.67;5.77;;;0.50;99.90;-0.80;95163.00;;;;6149355;23;20416;-68
2020/12/30 01:09:46;;;;;;;6.30;5.53;;;0.50;99.90;-0.80;95165.00;;;;6150344;23;20421;-67
2020/12/30 01:12:14;;;;;;;8.20;6.70;;;0.50;99.90;-0.90;95164.00;;;;6149766;23;20774;-67
2020/12/30 01:14:42;;;;;;;7.07;5.67;;;0.40;99.90;-0.90;95165.00;;;;6150716;23;20413;-67
2020/12/30 01:17:10;;;;;;;9.10;5.80;;;0.50;99.90;-0.90;95173.00;;;;6150113;23;20414;-68
2020/12/30 01:19:37;;;;;;;5.67;4.90;;;0.50;99.90;-0.80;95180.00;;;;6150309;23;20741;-67
2020/12/30 01:22:05;;;;;;;8.03;6.17;;;0.40;99.90;-0.90;95184.00;;;;6149235;23;20452;-67
2020/12/30 01:24:32;;;;;;;7.73;6.27;;;0.40;99.90;-0.90;95192.00;;;;6149772;23;20398;-66
2020/12/30 01:27:00;;;;;;;11.07;6.43;;;0.40;99.90;-0.80;95198.00;;;;6149961;23;20417;-66
2020/12/30 01:29:27;;;;;;;8.90;6.57;;;0.40;99.90;-0.80;95194.00;;;;6150585;23;20421;-66
2020/12/30 01:31:55;;;;;;;6.07;5.50;;;0.50;99.90;-0.80;95201.00;;;;6149603;23;20433;-67
2020/12/30 01:34:23;;;;;;;6.27;5.63;;;0.50;99.90;-0.80;95187.00;;;;6149928;23;20891;-68
2020/12/30 01:36:53;;;;;;;8.90;5.67;;;0.50;99.90;-0.80;95179.00;;;;6149191;23;20898;-67
2020/12/30 01:39:21;;;;;;;6.00;5.40;;;0.50;99.90;-0.70;95192.00;;;;6149994;23;20386;-67
2020/12/30 01:41:49;;;;;;;9.90;6.00;;;0.50;99.90;-0.70;95183.00;;;;6149046;23;20453;-67
2020/12/30 01:44:16;;;;;;;7.70;6.83;;;0.50;99.90;-0.70;95181.00;;;;6150073;23;20414;-66
2020/12/30 01:46:45;;;;;;;7.37;6.27;;;0.50;99.90;-0.70;95173.00;;;;6149596;23;20390;-68
2020/12/30 01:49:17;;;;;;;8.17;6.20;;;0.60;99.90;-0.70;95177.00;;;;6149960;23;20417;-67
2020/12/30 01:51:44;;;;;;;8.07;5.70;;;0.60;99.90;-0.70;95173.00;;;;6149627;23;20433;-67
2020/12/30 01:54:14;;;;;;;6.83;6.13;;;0.60;99.90;-0.70;95162.00;;;;6150088;23;20405;-66
2020/12/30 01:56:42;;;;;;;8.73;6.87;;;0.60;99.90;-0.60;95165.00;;;;6149710;23;20902;-67
2020/12/30 01:59:15;;;;;;;7.17;6.27;;;0.60;99.90;-0.70;95153.00;;;;6149323;23;20401;-67
2020/12/30 02:01:44;;;;;;;9.47;7.20;;;0.60;99.90;-0.70;95142.00;;;;6148576;23;20453;-67
2020/12/30 02:04:16;;;;;;;10.43;6.90;;;0.60;99.90;-0.70;95150.00;;;;6149961;23;20405;-67
2020/12/30 02:06:43;;;;;;;6.97;6.27;;;0.60;99.90;-0.70;95141.00;;;;6149982;23;20393;-66
2020/12/30 02:09:11;;;;;;;11.87;6.73;;;0.60;99.90;-0.70;95142.00;;;;6149337;23;20429;-67
2020/12/30 02:11:38;;;;;;;9.47;7.30;;;0.60;99.90;-0.70;95140.00;;;;6149974;23;20433;-68
2020/12/30 02:14:11;;;;;;;7.03;6.30;;;0.60;99.90;-0.60;95155.00;;;;6150445;23;20408;-68
2020/12/30 02:16:50;;;;;;;9.03;7.27;;;0.60;99.90;-0.60;95144.00;;;;6148995;23;20401;-67
2020/12/30 02:19:19;;;;;;;6.53;5.77;;;0.60;99.90;-0.60;95141.00;;;;6149981;23;20409;-67
2020/12/30 02:21:47;;;;;;;5.57;4.70;;;0.70;99.90;-0.60;95139.00;;;;6150030;23;20461;-67
2020/12/30 02:24:21;;;;;;;6.90;4.77;;;0.70;99.90;-0.60;95141.00;;;;6151055;23;20405;-67
2020/12/30 02:26:49;;;;;;;7.10;6.00;;;0.70;99.90;-0.60;95127.00;;;;6149311;23;20878;-67
2020/12/30 02:29:16;;;;;;;6.43;5.53;;;0.70;99.90;-0.60;95134.00;;;;6147822;23;20412;-66
2020/12/30 02:31:43;;;;;;;6.93;5.50;;;0.70;99.90;-0.60;95137.00;;;;6148952;23;20429;-67
2020/12/30 02:34:11;;;;;;;6.33;5.70;;;0.70;99.90;-0.60;95133.00;;;;6150544;23;20396;-67
2020/12/30 02:36:38;;;;;;;7.20;5.33;;;0.70;99.90;-0.60;95133.00;;;;6151154;23;20409;-67
2020/12/30 02:39:06;;;;;;;6.33;5.50;;;0.70;99.90;-0.60;95123.00;;;;6150470;23;20409;-68
2020/12/30 02:41:36;;;;;;;6.90;5.27;;;0.70;99.90;-0.50;95131.00;;;;6150811;23;20421;-67
2020/12/30 02:44:05;;;;;;;12.93;9.90;;;0.70;99.90;-0.60;95127.00;;;;6151556;23;20992;-67
2020/12/30 02:46:33;;;;;;;8.30;7.37;;;0.70;99.90;-0.60;95131.00;;;;6151456;23;20424;-67
2020/12/30 02:49:01;;;;;;;7.83;6.40;;;0.70;99.90;-0.70;95131.00;;;;6151083;23;20844;-67
2020/12/30 02:51:28;;;;;;;8.97;6.77;;;0.70;99.90;-0.70;95140.00;;;;6150856;23;20421;-68
2020/12/30 02:53:55;;;;;;;11.97;6.53;;;0.70;99.90;-0.60;95142.00;;;;6151642;23;20405;-67
2020/12/30 02:56:23;;;;;;;11.37;6.70;;;0.70;99.90;-0.70;95150.00;;;;6151367;23;20390;-67
2020/12/30 02:58:51;;;;;;;9.00;7.33;;;0.70;99.90;-0.70;95155.00;;;;6150648;23;20405;-67
2020/12/30 03:01:19;;;;;;;10.83;7.27;;;0.60;99.90;-0.60;95153.00;;;;6151631;23;20429;-67
2020/12/30 03:03:46;;;;;;;8.87;6.97;;;0.70;99.90;-0.60;95157.00;;;;6151828;23;20397;-68
2020/12/30 03:06:14;;;;;;;9.50;6.70;;;0.70;99.90;-0.60;95161.00;;;;6151266;23;20402;-67
2020/12/30 03:08:41;;;;;;;6.43;5.77;;;0.70;99.90;-0.60;95155.00;;;;6150312;23;20754;-68
2020/12/30 03:11:09;;;;;;;7.33;6.13;;;0.60;99.90;-0.60;95159.00;;;;6151381;23;20444;-67
2020/12/30 03:13:37;;;;;;;8.40;6.67;;;0.70;99.90;-0.60;95161.00;;;;6151019;23;20409;-68
2020/12/30 03:16:05;;;;;;;7.10;6.33;;;0.70;99.90;-0.60;95163.00;;;;6151125;23;20410;-67
2020/12/30 03:18:32;;;;;;;8.23;6.83;;;0.70;99.90;-0.50;95169.00;;;;6150054;23;20417;-67
2020/12/30 03:21:00;;;;;;;10.20;6.47;;;0.70;99.90;-0.60;95159.00;;;;6150994;23;20429;-67
2020/12/30 03:23:28;;;;;;;10.73;7.63;;;0.70;99.90;-0.50;95170.00;;;;6150829;23;21165;-67
2020/12/30 03:25:55;;;;;;;9.40;6.33;;;0.70;99.90;-0.50;95168.00;;;;6150766;23;20409;-67
2020/12/30 03:28:23;;;;;;;7.23;6.13;;;0.70;99.90;-0.50;95164.00;;;;6150357;23;20421;-67
2020/12/30 03:30:50;;;;;;;7.93;7.00;;;0.70;99.90;-0.50;95165.00;;;;6151122;23;20405;-67
2020/12/30 03:33:18;;;;;;;10.60;6.37;;;0.80;99.90;-0.60;95159.00;;;;6150687;23;20390;-67
2020/12/30 03:35:46;;;;;;;8.00;7.17;;;0.80;99.90;-0.60;95159.00;;;;6150985;23;20406;-67
2020/12/30 03:38:13;;;;;;;8.93;7.10;;;0.70;99.90;-0.60;95164.00;;;;6150020;23;20906;-68
2020/12/30 03:40:41;;;;;;;8.93;7.17;;;0.70;99.90;-0.60;95153.00;;;;6150579;23;20416;-68
2020/12/30 03:43:08;;;;;;;13.90;7.60;;;0.70;99.90;-0.60;95156.00;;;;6150270;23;20453;-68
2020/12/30 03:45:35;;;;;;;9.83;6.63;;;0.70;99.90;-0.60;95167.00;;;;6151077;23;20409;-67
2020/12/30 03:48:03;;;;;;;9.43;7.43;;;0.70;99.90;-0.60;95159.00;;;;6150163;23;20390;-67
2020/12/30 03:50:31;;;;;;;8.87;6.97;;;0.70;99.90;-0.60;95162.00;;;;6151368;23;20417;-66
2020/12/30 03:52:59;;;;;;;11.13;8.07;;;0.70;99.90;-0.50;95156.00;;;;6149990;23;20417;-67
2020/12/30 03:55:26;;;;;;;8.70;7.43;;;0.70;99.90;-0.50;95156.00;;;;6150956;23;20401;-67
2020/12/30 03:57:53;;;;;;;9.57;7.23;;;0.70;99.90;-0.50;95157.00;;;;6149824;23;20746;-66
2020/12/30 04:00:21;;;;;;;7.93;7.13;;;0.70;99.90;-0.60;95158.00;;;;6150668;23;20770;-68
2020/12/30 04:02:48;;;;;;;8.80;7.00;;;0.80;99.90;-0.60;95154.00;;;;6150082;23;20463;-66
2020/12/30 04:05:15;;;;;;;11.20;6.57;;;0.70;99.90;-0.50;95152.00;;;;6151049;23;20406;-68
2020/12/30 04:07:44;;;;;;;8.10;6.47;;;0.70;99.90;-0.50;95160.00;;;;6150297;23;20437;-68
2020/12/30 04:10:11;;;;;;;8.67;6.90;;;0.70;99.90;-0.50;95159.00;;;;6150612;23;20424;-68
2020/12/30 04:12:39;;;;;;;10.27;6.87;;;0.70;99.90;-0.50;95166.00;;;;6150583;23;20930;-68
2020/12/30 04:15:06;;;;;;;9.17;6.80;;;0.80;99.90;-0.40;95162.00;;;;6150898;23;20416;-67
2020/12/30 04:17:34;;;;;;;9.50;7.73;;;0.80;99.90;-0.40;95161.00;;;;6150151;23;20421;-67
2020/12/30 04:20:01;;;;;;;8.33;6.70;;;0.80;99.90;-0.40;95160.00;;;;6151036;23;20417;-67
2020/12/30 04:22:28;;;;;;;7.63;6.73;;;0.80;99.90;-0.40;95167.00;;;;6150212;23;20969;-67
2020/12/30 04:24:57;;;;;;;7.47;6.30;;;0.80;99.90;-0.40;95168.00;;;;6151081;23;20409;-68
2020/12/30 04:27:24;;;;;;;9.27;7.10;;;0.90;99.90;-0.40;95166.00;;;;6149853;23;20406;-67
2020/12/30 04:29:51;;;;;;;6.07;5.47;;;0.90;99.90;-0.40;95169.00;;;;6151342;23;20405;-67
2020/12/30 04:32:19;;;;;;;7.53;6.47;;;0.90;99.90;-0.40;95169.00;;;;6150412;23;20429;-67
2020/12/30 04:34:46;;;;;;;11.30;6.20;;;0.90;99.90;-0.40;95167.00;;;;6150688;23;20405;-67
2020/12/30 04:37:14;;;;;;;7.00;6.30;;;0.90;99.90;-0.30;95162.00;;;;6149802;23;20424;-67
2020/12/30 04:39:42;;;;;;;8.47;7.57;;;0.90;99.90;-0.40;95163.00;;;;6150460;23;20394;-67
2020/12/30 04:42:10;;;;;;;12.50;7.90;;;0.90;99.90;-0.40;95164.00;;;;6149859;23;20479;-67
2020/12/30 04:44:44;;;;;;;10.13;7.67;;;0.90;99.90;-0.40;95172.00;;;;6150040;23;20433;-67
2020/12/30 04:47:12;;;;;;;8.17;7.33;;;0.90;99.90;-0.50;95177.00;;;;6149354;23;20409;-67
2020/12/30 04:49:39;;;;;;;9.93;7.37;;;0.90;99.90;-0.50;95167.00;;;;6150358;23;20417;-67
2020/12/30 04:52:07;;;;;;;10.23;7.57;;;0.80;99.90;-0.40;95175.00;;;;6149935;23;20429;-67
2020/12/30 04:54:36;;;;;;;8.57;7.50;;;0.80;99.90;-0.40;95174.00;;;;6150439;23;20402;-67
2020/12/30 04:57:04;;;;;;;9.03;7.20;;;0.80;99.90;-0.40;95170.00;;;;6149109;23;20417;-67
2020/12/30 04:59:40;;;;;;;6.97;6.10;;;0.80;99.90;-0.40;95176.00;;;;6149806;23;20406;-67
2020/12/30 05:02:09;;;;;;;7.47;6.50;;;0.80;99.90;-0.40;95170.00;;;;6149542;23;20448;-67
2020/12/30 05:04:39;;;;;;;7.17;6.47;;;0.80;99.90;-0.40;95165.00;;;;6150193;23;20406;-68
2020/12/30 05:07:09;;;;;;;7.47;6.40;;;0.90;99.90;-0.50;95164.00;;;;6149148;23;20413;-67
2020/12/30 05:09:38;;;;;;;6.77;5.67;;;0.80;99.90;-0.50;95165.00;;;;6150042;23;20932;-67
2020/12/30 05:12:12;;;;;;;9.30;6.43;;;0.80;99.90;-0.50;95174.00;;;;6149297;23;20425;-67
2020/12/30 05:14:41;;;;;;;7.27;5.83;;;0.80;99.90;-0.50;95166.00;;;;6150586;23;20420;-67
2020/12/30 05:17:10;;;;;;;6.90;6.20;;;0.80;99.90;-0.50;95164.00;;;;6150276;23;20410;-67
2020/12/30 05:19:37;;;;;;;6.70;5.67;;;0.80;99.90;-0.50;95171.00;;;;6150211;23;20416;-67
2020/12/30 05:22:06;;;;;;;6.00;5.33;;;0.80;99.90;-0.50;95175.00;;;;6147932;23;20456;-68
2020/12/30 05:24:33;;;;;;;7.23;6.00;;;0.80;99.90;-0.40;95167.00;;;;6148397;23;20405;-67
2020/12/30 05:27:01;;;;;;;5.93;5.33;;;0.80;99.90;-0.40;95179.00;;;;6150077;23;20405;-67
2020/12/30 05:29:29;;;;;;;6.10;5.50;;;0.80;99.90;-0.40;95176.00;;;;6150210;23;20401;-69
2020/12/30 05:31:57;;;;;;;7.73;7.00;;;0.80;99.90;-0.40;95167.00;;;;6150292;23;20433;-68
2020/12/30 05:34:25;;;;;;;6.50;5.47;;;0.80;99.90;-0.50;95184.00;;;;6150316;23;20405;-67
2020/12/30 05:36:53;;;;;;;7.70;5.93;;;0.80;99.90;-0.50;95160.00;;;;6149392;23;20718;-68
2020/12/30 05:39:21;;;;;;;6.90;6.23;;;0.80;99.90;-0.50;95185.00;;;;6150017;23;20931;-68
2020/12/30 05:41:49;;;;;;;6.30;5.70;;;0.80;99.90;-0.50;95195.00;;;;6149868;23;20456;-68
2020/12/30 05:44:18;;;;;;;6.53;5.80;;;0.80;99.90;-0.50;95193.00;;;;6150407;23;20417;-67
2020/12/30 05:46:46;;;;;;;6.53;5.03;;;0.80;99.90;-0.50;95204.00;;;;6149643;23;20413;-66
2020/12/30 05:49:34;;;;;;;7.50;6.50;;;0.80;99.90;-0.50;95202.00;;;;6149589;23;20413;-68
2020/12/30 05:52:14;;;;;;;7.73;6.00;;;0.80;99.90;-0.50;95205.00;;;;6149784;23;20444;-69
2020/12/30 05:54:54;;;;;;;8.80;5.97;;;0.80;99.90;-0.50;95207.00;;;;6149765;23;20400;-68
2020/12/30 05:57:30;;;;;;;8.87;6.47;;;0.70;99.90;-0.50;95217.00;;;;6149503;23;20390;-68
2020/12/30 06:00:00;;;;;;;6.83;5.67;;;0.80;99.90;-0.50;95220.00;;;;6149324;23;20416;-66
2020/12/30 06:02:29;;;;;;;8.23;6.23;;;0.80;99.90;-0.50;95230.00;;;;6149851;23;20939;-66
2020/12/30 06:05:11;;;;;;;9.03;6.33;;;0.80;99.90;-0.50;95230.00;;;;6150075;23;20417;-67
2020/12/30 06:07:39;;;;;;;6.83;5.67;;;0.80;99.90;-0.50;95228.00;;;;6149277;23;20389;-66
2020/12/30 06:10:09;;;;;;;7.73;6.13;;;0.80;99.90;-0.50;95231.00;;;;6150502;23;20421;-67
2020/12/30 06:12:51;;;;;;;8.90;6.47;;;0.80;99.90;-0.40;95227.00;;;;6151130;23;20938;-68
2020/12/30 06:15:21;;;;;;;11.03;7.23;;;0.80;99.90;-0.40;95234.00;;;;6151936;23;20393;-67
2020/12/30 06:17:55;;;;;;;10.30;7.43;;;0.80;99.90;-0.40;95236.00;;;;6151453;23;20416;-67
2020/12/30 06:20:26;;;;;;;7.37;6.07;;;0.90;99.90;-0.40;95238.00;;;;6152125;23;20394;-67
2020/12/30 06:22:58;;;;;;;7.63;6.40;;;0.80;99.90;-0.40;95238.00;;;;6151676;23;20449;-67
2020/12/30 06:25:26;;;;;;;7.00;6.10;;;0.90;99.90;-0.40;95252.00;;;;6152324;23;20725;-67
2020/12/30 06:27:55;;;;;;;6.30;5.53;;;0.80;99.90;-0.50;95236.00;;;;6150730;23;20409;-67
2020/12/30 06:30:23;;;;;;;7.00;5.90;;;0.90;99.90;-0.50;95232.00;;;;6152522;23;20413;-66
2020/12/30 06:32:51;;;;;;;7.97;6.47;;;0.80;99.90;-0.50;95246.00;;;;6151617;23;20769;-68
2020/12/30 06:35:28;;;;;;;11.87;8.60;;;0.80;99.90;-0.50;95248.00;;;;6151639;23;20998;-66
2020/12/30 06:37:56;;;;;;;10.57;8.00;;;0.80;99.90;-0.40;95246.00;;;;6151198;23;20394;-68
2020/12/30 06:40:27;;;;;;;9.20;7.67;;;0.80;99.90;-0.50;95247.00;;;;6152055;23;20414;-67
2020/12/30 06:42:56;;;;;;;9.33;8.00;;;0.80;99.90;-0.40;95254.00;;;;6151691;23;20455;-67
2020/12/30 06:45:51;;;;;;;9.43;8.43;;;0.80;99.90;-0.40;95260.00;;;;6151886;23;20397;-66
2020/12/30 06:48:20;;;;;;;10.57;8.73;;;0.80;99.90;-0.40;95252.00;;;;6150145;23;20401;-67
2020/12/30 06:50:49;;;;;;;8.60;7.50;;;0.80;99.90;-0.40;95253.00;;;;6151938;23;20405;-66
2020/12/30 06:53:29;;;;;;;8.33;7.20;;;0.80;99.90;-0.40;95267.00;;;;6151626;23;20409;-67
2020/12/30 06:55:58;;;;;;;9.50;8.00;;;0.80;99.90;-0.40;95268.00;;;;6151741;23;20393;-66
2020/12/30 06:58:46;;;;;;;7.43;6.73;;;0.90;99.90;-0.40;95261.00;;;;6151101;23;20409;-67
2020/12/30 07:01:15;;;;;;;9.30;7.43;;;0.90;99.90;-0.40;95260.00;;;;6151531;23;20430;-67
2020/12/30 07:03:44;;;;;;;9.40;6.60;;;0.90;99.90;-0.40;95259.00;;;;6151460;23;20926;-67
2020/12/30 07:06:35;;;;;;;6.67;5.97;;;0.80;99.90;-0.40;95260.00;;;;6151284;23;20413;-67
2020/12/30 07:09:05;;;;;;;5.83;5.07;;;0.90;99.90;-0.50;95270.00;;;;6150668;23;20508;-67
2020/12/30 07:11:45;;;;;;;6.63;5.47;;;1.00;99.90;-0.50;95262.00;;;;6149143;23;20451;-67
2020/12/30 07:14:14;;;;;;;6.23;4.63;;;0.80;99.90;-0.50;95261.00;;;;6151015;23;20405;-66
2020/12/30 07:16:47;;;;;;;6.93;4.93;;;0.80;99.90;-0.40;95271.00;;;;6150762;23;20938;-67
2020/12/30 07:19:20;;;;;;;8.20;6.10;;;0.80;99.90;-0.40;95270.00;;;;6151241;23;20394;-66
2020/12/30 07:22:03;;;;;;;6.87;5.67;;;0.90;99.90;-0.30;95272.00;;;;6150282;23;20799;-67
2020/12/30 07:24:39;;;;;;;6.33;5.60;;;0.90;99.90;-0.30;95282.00;;;;6151428;23;20401;-67
2020/12/30 07:27:11;;;;;;;7.80;5.63;;;0.90;99.90;-0.20;95271.00;;;;6151230;23;20389;-67
2020/12/30 07:29:39;;;;;;;6.20;5.13;;;0.90;99.90;-0.20;95284.00;;;;6151170;23;20722;-67
2020/12/30 07:32:08;;;;;;;5.00;4.17;;;1.00;99.90;-0.10;95275.00;;;;6151233;23;20433;-68
2020/12/30 07:34:40;;;;;;;5.13;4.63;;;1.00;99.90;-0.10;95285.00;;;;6151059;23;20409;-67
2020/12/30 07:37:09;;;;;;;5.23;4.50;;;1.10;99.90;-0.10;95287.00;;;;6151302;23;20420;-67
2020/12/30 07:39:41;;;;;;;6.27;4.33;;;1.10;99.90;0.00;95282.00;;;;6150790;23;20917;-67
2020/12/30 07:42:12;;;;;;;6.40;4.23;;;1.10;99.90;0.00;95282.00;;;;6150311;23;20979;-67
2020/12/30 07:44:43;;;;;;;7.23;5.33;;;1.20;99.90;0.10;95286.00;;;;6150646;23;20722;-67
2020/12/30 07:47:11;;;;;;;8.37;5.90;;;1.20;99.90;0.00;95279.00;;;;6150585;23;20389;-67
2020/12/30 07:49:38;;;;;;;7.37;5.37;;;1.30;99.90;0.00;95286.00;;;;6150918;23;20405;-67
2020/12/30 07:52:06;;;;;;;6.87;5.10;;;0.40;99.90;0.10;95280.00;;;;6150660;23;20969;-67
2020/12/30 07:54:35;;;;;;;6.47;5.80;;;1.30;99.90;0.20;95261.00;;;;6150181;23;20402;-67
2020/12/30 07:57:04;;;;;;;8.27;6.60;;;1.30;99.90;0.20;95268.00;;;;6150289;23;20448;-68
2020/12/30 07:59:33;;;;;;;7.37;5.67;;;1.40;99.90;0.30;95270.00;;;;6150367;23;21067;-67
2020/12/30 08:02:03;;;;;;;6.13;5.63;;;1.40;99.90;0.40;95282.00;;;;6150331;23;20957;-67
2020/12/30 08:04:32;;;;;;;4.80;4.27;;;1.50;99.90;0.30;95269.00;;;;6151322;23;20509;-67
2020/12/30 08:07:02;;;;;;;5.57;4.90;;;1.50;99.90;0.50;95262.00;;;;6149565;23;20404;-67
2020/12/30 08:09:32;;;;;;;4.20;3.63;;;1.60;99.90;0.90;95252.00;;;;6150385;23;20425;-67
2020/12/30 08:12:04;;;;;;;5.00;3.70;;;1.70;99.90;1.10;95267.00;;;;6150052;23;20436;-67
2020/12/30 08:14:33;;;;;;;6.33;4.20;;;1.90;99.90;1.50;95291.00;;;;6150499;23;20401;-66
2020/12/30 08:17:05;;;;;;;4.93;3.83;;;2.10;99.90;1.80;95287.00;;;;6150148;23;20406;-66
2020/12/30 08:19:38;;;;;;;5.43;4.87;;;2.30;99.90;2.10;95300.00;;;;6150529;23;20429;-67
2020/12/30 08:22:14;;;;;;;10.57;8.53;;;2.60;99.90;2.20;95296.00;;;;6149832;23;20453;-66
2020/12/30 08:24:44;;;;;;;3.87;3.50;;;2.80;99.90;2.40;95306.00;;;;6151212;23;20401;-66
2020/12/30 08:27:14;;;;;;;3.50;3.00;;;3.00;99.90;2.20;95313.00;;;;6149631;23;20425;-66
2020/12/30 08:29:59;;;;;;;6.07;3.47;;;3.10;99.90;1.30;95318.00;;;;6150258;23;20173;-66
2020/12/30 08:32:44;;;;;;;3.57;3.00;;;2.90;99.90;1.10;95305.00;;;;6150130;23;20228;-66
2020/12/30 08:35:16;;;;;;;4.00;3.57;;;2.70;99.90;1.20;95314.00;;;;6150538;23;20401;-66
2020/12/30 08:37:47;;;;;;;3.33;2.87;;;2.50;99.90;1.10;95317.00;;;;6149994;23;20386;-66
2020/12/30 08:40:18;;;;;;;4.63;3.13;;;2.40;99.90;1.10;95320.00;;;;6151066;23;20412;-67
2020/12/30 08:43:26;;;;;;;3.00;2.70;;;2.40;99.90;0.90;95316.00;;;;6150517;23;20452;-66
2020/12/30 08:46:07;;;;;;;4.70;3.90;;;2.30;99.90;1.00;95327.00;;;;6135456;23;20414;-67
2020/12/30 08:48:47;;;;;;;6.23;4.50;;;2.30;99.90;1.10;95333.00;;;;6149294;23;20401;-67
2020/12/30 08:51:29;;;;;;;5.00;4.37;;;2.30;99.90;1.20;95330.00;;;;6147248;23;20421;-68
2020/12/30 08:53:57;;;;;;;4.17;3.73;;;2.30;99.90;1.20;95332.00;;;;6148497;23;20906;-67
2020/12/30 08:56:25;;;;;;;7.37;4.13;;;2.30;99.90;1.00;95344.00;;;;6151029;23;20409;-67
2020/12/30 08:58:55;;;;;;;4.43;4.10;;;2.30;99.90;1.00;95332.00;;;;6149033;23;20972;-67
2020/12/30 09:01:24;;;;;;;4.50;3.60;;;2.30;99.90;1.00;95344.00;;;;6148555;23;20436;-67
2020/12/30 09:03:52;;;;;;;6.17;4.57;;;2.20;99.90;0.90;95342.00;;;;6149793;23;20903;-67
2020/12/30 09:06:28;;;;;;;5.13;4.57;;;2.20;99.90;0.90;95338.00;;;;6150042;23;20736;-68
2020/12/30 09:09:07;;;;;;;4.67;3.77;;;2.20;99.90;1.00;95346.00;;;;6149657;23;20425;-67
2020/12/30 09:11:36;;;;;;;4.27;3.70;;;2.20;99.90;1.00;95339.00;;;;6149661;23;20428;-67
2020/12/30 09:14:23;;;;;;;4.40;4.00;;;2.20;99.90;0.90;95347.00;;;;6150341;23;20821;-67
2020/12/30 09:16:57;;;;;;;4.60;4.13;;;2.20;99.90;0.90;95340.00;;;;6149670;23;20408;-67
2020/12/30 09:19:24;;;;;;;7.57;4.07;;;2.20;99.90;0.70;95348.00;;;;6150833;23;20394;-66
2020/12/30 09:21:52;;;;;;;6.80;3.80;;;2.10;99.90;0.70;95339.00;;;;6149489;23;20430;-67
2020/12/30 09:24:23;;;;;;;4.23;3.83;;;2.00;99.90;0.60;95345.00;;;;6150401;23;20460;-67
2020/12/30 09:26:50;;;;;;;6.83;4.07;;;2.00;99.90;0.70;95348.00;;;;6149288;23;20410;-68
2020/12/30 09:29:20;;;;;;;4.83;3.83;;;1.90;99.90;0.70;95352.00;;;;6150295;23;20477;-67
2020/12/30 09:31:56;;;;;;;5.47;4.93;;;1.90;99.90;0.60;95349.00;;;;6147650;23;20456;-67
2020/12/30 09:34:26;;;;;;;7.33;5.73;;;1.90;99.90;0.70;95351.00;;;;6150385;23;20459;-68
2020/12/30 09:36:55;;;;;;;4.60;4.13;;;1.90;99.90;0.70;95365.00;;;;6148039;23;20389;-67
2020/12/30 09:39:24;;;;;;;5.77;4.77;;;1.90;99.90;0.70;95363.00;;;;6149866;23;20739;-67
2020/12/30 09:42:02;;;;;;;5.47;4.23;;;1.90;99.90;0.80;95361.00;;;;6149815;23;20739;-67
2020/12/30 09:44:30;;;;;;;3.97;3.30;;;1.90;99.90;1.00;95363.00;;;;6150186;23;20437;-67
2020/12/30 09:46:59;;;;;;;4.00;3.23;;;2.00;99.90;1.10;95357.00;;;;6150129;23;20428;-67
2020/12/30 09:49:26;;;;;;;4.20;3.80;;;2.10;99.90;1.20;95354.00;;;;6151848;23;20409;-67
2020/12/30 09:51:55;;;;;;;8.27;7.10;;;2.20;99.90;1.40;95344.00;;;;6151316;23;20432;-67
2020/12/30 09:54:22;;;;;;;24.80;17.20;;;2.30;99.90;1.50;95348.00;;;;6149417;23;20409;-68
2020/12/30 09:56:50;;;;;;;26.77;18.70;;;2.40;99.90;1.60;95347.00;;;;6149163;23;20437;-68
2020/12/30 09:59:21;;;;;;;14.03;11.47;;;2.50;99.90;1.80;95357.00;;;;6150873;23;20436;-68
2020/12/30 10:01:49;;;;;;;12.93;8.77;;;2.60;99.90;1.90;95352.00;;;;6150632;23;20439;-69
2020/12/30 10:04:17;;;;;;;8.57;7.33;;;2.80;99.90;1.90;95345.00;;;;6150759;23;20453;-68
2020/12/30 10:06:48;;;;;;;8.37;6.83;;;2.80;99.90;2.10;95348.00;;;;6151358;23;20397;-68
2020/12/30 10:09:15;;;;;;;10.40;6.10;;;2.90;99.90;2.20;95342.00;;;;6151460;23;20451;-69
2020/12/30 10:11:43;;;;;;;7.80;6.67;;;3.00;99.90;2.30;95339.00;;;;6151436;23;20202;-68
2020/12/30 10:14:10;;;;;;;8.03;5.17;;;3.10;99.90;2.50;95334.00;;;;6151607;23;20875;-69
2020/12/30 10:16:38;;;;;;;8.03;5.43;;;3.20;99.90;2.60;95335.00;;;;6151730;23;20193;-68
2020/12/30 10:19:06;;;;;;;6.57;5.87;;;3.30;99.90;2.80;95329.00;;;;6151545;23;20525;-68
2020/12/30 10:21:34;;;;;;;8.07;5.00;;;3.50;99.90;2.70;95331.00;;;;6150432;23;20267;-68
2020/12/30 10:24:02;;;;;;;7.50;6.70;;;3.70;99.90;2.50;95323.00;;;;6152108;23;20229;-67
2020/12/30 10:26:30;;;;;;;6.73;5.83;;;3.70;99.90;2.70;95333.00;;;;6151051;23;20189;-67
2020/12/30 10:28:57;;;;;;;7.57;5.80;;;3.70;99.90;2.70;95329.00;;;;6150912;23;20190;-67
2020/12/30 10:31:25;;;;;;;7.93;5.73;;;3.70;99.90;3.10;95324.00;;;;6151590;23;20352;-67
2020/12/30 10:33:52;;;;;;;5.63;4.97;;;3.90;99.90;3.50;95314.00;;;;6151096;23;20185;-68
2020/12/30 10:36:22;;;;;;;6.20;4.67;;;4.10;99.90;4.00;95319.00;;;;6151615;23;20170;-68
2020/12/30 10:38:50;;;;;;;7.17;5.03;;;4.40;99.90;4.40;95317.00;;;;6149935;23;20186;-68
2020/12/30 10:41:18;;;;;;;5.63;5.03;;;4.90;99.90;4.80;95312.00;;;;6150852;23;20225;-67
2020/12/30 10:43:45;;;;;;;9.73;6.93;;;5.20;99.90;5.00;95302.00;;;;6149392;23;20197;-67
2020/12/30 10:46:14;;;;;;;6.67;6.07;;;5.50;99.90;5.20;95309.00;;;;6149552;23;20182;-67
2020/12/30 10:48:44;;;;;;;5.03;4.53;;;5.90;99.90;5.60;95293.00;;;;6148381;23;20181;-68
2020/12/30 10:51:13;;;;;;;5.87;4.53;;;6.50;99.90;5.80;95296.00;;;;6151259;23;20209;-67
2020/12/30 10:53:41;;;;;;;6.00;5.20;;;6.80;99.90;6.20;95307.00;;;;6148026;23;20196;-68
2020/12/30 10:56:10;;;;;;;5.80;5.20;;;7.30;99.90;6.20;95301.00;;;;6149277;23;20192;-68
2020/12/30 10:58:38;;;;;;;3.77;3.47;;;7.60;99.90;7.00;95297.00;;;;6151057;23;20185;-67
2020/12/30 11:01:08;;;;;;;3.93;3.40;;;8.00;99.90;8.20;95323.00;;;;6151368;23;20621;-67
2020/12/30 11:03:35;;;;;;;4.03;3.43;;;8.70;99.90;8.70;95323.00;;;;6151175;23;20521;-67
2020/12/30 11:06:04;;;;;;;3.90;3.10;;;9.30;99.90;8.90;95311.00;;;;6151503;23;20170;-67
2020/12/30 11:08:32;;;;;;;3.90;3.50;;;9.70;99.90;9.40;95320.00;;;;6149802;23;20174;-67
2020/12/30 11:11:00;;;;;;;18.53;10.80;;;10.10;99.90;9.30;95319.00;;;;6150712;23;20694;-67
2020/12/30 11:13:29;;;;;;;6.57;4.93;;;10.40;99.90;9.40;95327.00;;;;6151414;23;20197;-67